Time;durP1;ratioP1;P1;durP2;ratioP2;P2;SDS_P1;SDS_P2;PMS_P1;PMS_P2;Temp;Humidity;BMP_temperature;BMP_pressure;BME280_temperature;BME280_humidity;BME280_pressure;Samples;Min_cycle;Max_cycle;Signal;HPM_P1;HPM_P2
2023/01/11 00:01:37;;;;;;;29.05;8.60;;;;;;;8.47;98.71;100118.75;5016653;28;20033;-69
2023/01/11 00:04:02;;;;;;;28.55;8.43;;;;;;;8.40;99.17;100109.88;5018237;28;20411;-69
2023/01/11 00:06:27;;;;;;;29.58;7.63;;;;;;;8.43;98.34;100099.56;5036237;28;20036;-69
2023/01/11 00:08:55;;;;;;;24.60;8.45;;;;;;;8.32;98.47;100072.50;5002591;28;20029;-69
2023/01/11 00:11:20;;;;;;;25.58;7.32;;;;;;;8.49;98.05;100089.91;5020027;28;20037;-69
2023/01/11 00:13:46;;;;;;;22.08;6.68;;;;;;;8.22;99.05;100043.41;5036079;28;20102;-69
2023/01/11 00:16:12;;;;;;;28.52;6.90;;;;;;;8.30;98.51;100066.50;5018861;28;20037;-69
2023/01/11 00:18:41;;;;;;;29.85;8.52;;;;;;;8.36;98.38;100077.25;5037067;28;20136;-69
2023/01/11 00:21:07;;;;;;;29.00;8.70;;;;;;;8.43;97.97;100062.03;5020094;28;20387;-69
2023/01/11 00:23:35;;;;;;;31.42;8.15;;;;;;;8.39;98.42;100046.56;5037434;28;20045;-69
2023/01/11 00:26:07;;;;;;;30.50;8.73;;;;;;;8.35;98.84;100048.81;5003219;28;20037;-69
2023/01/11 00:28:33;;;;;;;30.60;8.00;;;;;;;8.17;98.44;100013.69;5019512;28;20021;-69
2023/01/11 00:30:59;;;;;;;32.67;9.57;;;;;;;8.31;99.07;100033.31;5037381;28;20369;-69
2023/01/11 00:33:24;;;;;;;33.67;8.77;;;;;;;8.35;98.74;100022.00;5039181;28;20105;-69
2023/01/11 00:35:51;;;;;;;36.88;9.30;;;;;;;8.30;98.89;100031.66;5021646;28;20022;-69
2023/01/11 00:38:42;;;;;;;33.38;9.75;;;;;;;8.28;99.44;100015.81;5004496;28;20036;-69
2023/01/11 00:47:55;;;;;;;38.35;10.38;;;;;;;8.09;100.00;100000.50;5008737;28;20088;-69
2023/01/11 00:49:17;;;;;;;37.72;10.05;;;;;;;8.17;99.82;99976.19;5042787;28;20033;-69
2023/01/11 00:51:43;;;;;;;35.78;10.68;;;;;;;8.19;100.00;99966.09;5025490;28;20059;-69
2023/01/11 00:54:08;;;;;;;31.90;8.75;;;;;;;8.03;100.00;99948.53;5042435;28;20056;-69
2023/01/11 00:56:34;;;;;;;34.10;8.30;;;;;;;8.09;100.00;99957.63;5020993;28;20037;-69
2023/01/11 00:59:00;;;;;;;26.92;7.95;;;;;;;7.97;100.00;99934.09;5024599;28;20056;-70
2023/01/11 01:01:25;;;;;;;27.70;7.68;;;;;;;7.96;100.00;99959.25;5040345;28;20128;-69
2023/01/11 01:03:51;;;;;;;30.58;8.05;;;;;;;7.89;100.00;99912.06;5029450;28;20080;-69
2023/01/11 01:06:16;;;;;;;28.08;7.28;;;;;;;7.91;100.00;99897.44;5022676;28;20025;-68
2023/01/11 01:08:42;;;;;;;32.05;7.85;;;;;;;8.02;100.00;99913.94;5041076;28;20107;-69
2023/01/11 01:11:07;;;;;;;21.52;6.40;;;;;;;7.83;100.00;99900.28;5040687;28;20426;-69
2023/01/11 01:16:18;;;;;;;24.30;7.25;;;;;;;7.90;100.00;99887.72;5048093;28;20046;-69
2023/01/11 01:18:44;;;;;;;20.73;5.40;;;;;;;7.82;100.00;99874.53;5047590;28;20111;-69
2023/01/11 01:21:09;;;;;;;22.00;5.93;;;;;;;7.89;100.00;99853.94;5040561;28;20045;-70
2023/01/11 01:23:35;;;;;;;22.92;5.63;;;;;;;7.73;100.00;99843.63;5039353;28;20041;-69
2023/01/11 01:26:05;;;;;;;24.35;6.57;;;;;;;7.81;100.00;99846.09;5036823;28;20380;-69
2023/01/11 01:28:30;;;;;;;18.75;5.72;;;;;;;7.72;100.00;99831.28;5037459;28;20041;-69
2023/01/11 01:30:55;;;;;;;16.63;5.25;;;;;;;7.73;100.00;99827.56;5037189;28;20026;-69
2023/01/11 01:33:21;;;;;;;21.80;6.10;;;;;;;7.80;100.00;99835.59;5038861;28;20049;-69
2023/01/11 01:35:47;;;;;;;24.15;5.78;;;;;;;7.70;100.00;99795.84;5037797;28;20036;-69
2023/01/11 01:38:12;;;;;;;23.88;6.35;;;;;;;7.79;100.00;99802.66;5035508;28;20026;-69
2023/01/11 01:40:46;;;;;;;20.95;5.70;;;;;;;7.65;100.00;99804.50;5035507;28;20061;-69
2023/01/11 01:43:16;;;;;;;19.75;4.72;;;;;;;7.66;100.00;99787.38;5036771;28;20072;-69
2023/01/11 01:45:42;;;;;;;25.95;6.22;;;;;;;7.55;100.00;99763.91;5035450;28;20022;-69
2023/01/11 01:48:15;;;;;;;28.90;7.20;;;;;;;7.67;100.00;99782.84;5036321;28;20542;-70
2023/01/11 01:50:43;;;;;;;25.25;5.93;;;;;;;7.68;100.00;99763.06;5037535;28;20036;-69
2023/01/11 01:53:13;;;;;;;20.85;5.53;;;;;;;7.69;100.00;99748.69;5041353;28;20036;-70
2023/01/11 01:55:42;;;;;;;28.08;5.93;;;;;;;7.64;100.00;99725.19;5039276;28;20087;-69
2023/01/11 01:58:14;;;;;;;25.30;6.18;;;;;;;7.66;100.00;99727.66;5039074;28;20025;-69
2023/01/11 02:00:44;;;;;;;27.08;5.70;;;;;;;7.61;100.00;99698.81;5039221;28;20025;-69
2023/01/11 02:03:14;;;;;;;25.13;6.35;;;;;;;7.60;100.00;99685.66;5039570;28;20052;-69
2023/01/11 02:05:40;;;;;;;18.08;4.43;;;;;;;7.61;100.00;99673.91;5039325;28;20025;-69
2023/01/11 02:08:15;;;;;;;21.23;4.97;;;;;;;7.65;100.00;99665.28;5024352;28;20087;-69
2023/01/11 02:10:41;;;;;;;20.40;5.10;;;;;;;7.66;100.00;99648.16;5040355;28;20033;-69
2023/01/11 02:13:09;;;;;;;22.20;4.70;;;;;;;7.65;100.00;99664.41;5040297;28;20080;-69
2023/01/11 02:15:37;;;;;;;25.65;4.20;;;;;;;7.53;100.00;99654.34;5040314;28;20025;-70
2023/01/11 02:18:02;;;;;;;24.35;4.82;;;;;;;7.42;100.00;99633.59;5022796;28;20112;-69
2023/01/11 02:20:31;;;;;;;22.88;5.18;;;;;;;7.75;100.00;99678.25;5040559;28;20068;-69
2023/01/11 02:23:30;;;;;;;25.17;5.78;;;;;;;7.67;100.00;99665.06;5041140;28;20025;-69
2023/01/11 02:26:38;;;;;;;19.10;4.18;;;;;;;7.43;100.00;99626.38;5041747;28;20103;-69
2023/01/11 02:29:29;;;;;;;16.00;4.43;;;;;;;7.48;100.00;99630.06;5039425;28;20388;-69
2023/01/11 02:32:13;;;;;;;22.50;4.30;;;;;;;7.46;100.00;99624.09;5041296;28;20033;-69
2023/01/11 02:35:00;;;;;;;20.65;4.47;;;;;;;7.46;100.00;99612.56;5039859;28;20116;-69
2023/01/11 02:37:47;;;;;;;21.02;3.88;;;;;;;7.37;100.00;99601.25;5040959;28;20029;-70
2023/01/11 02:40:25;;;;;;;18.38;4.47;;;;;;;7.16;100.00;99572.88;5041075;28;20026;-69
2023/01/11 02:46:27;;;;;;;20.73;3.72;;;;;;;7.20;100.00;99568.75;5041551;28;20036;-69
2023/01/11 02:49:12;;;;;;;17.63;3.80;;;;;;;7.43;100.00;99578.19;5047375;28;20041;-69
2023/01/11 02:51:53;;;;;;;19.60;3.83;;;;;;;7.31;100.00;99553.91;5047436;28;20025;-70
2023/01/11 02:54:22;;;;;;;15.50;3.50;;;;;;;7.36;100.00;99550.63;5043565;28;20084;-69
2023/01/11 02:56:52;;;;;;;19.42;3.50;;;;;;;7.39;100.00;99558.25;5040253;28;20036;-70
2023/01/11 02:59:21;;;;;;;17.80;3.70;;;;;;;7.43;100.00;99554.94;5039573;28;20083;-69
2023/01/11 03:01:52;;;;;;;17.73;3.45;;;;;;;7.36;100.00;99530.03;5040128;28;20033;-69
2023/01/11 03:04:29;;;;;;;25.58;3.90;;;;;;;7.42;100.00;99545.25;5039505;28;20603;-69
2023/01/11 03:07:18;;;;;;;22.15;3.78;;;;;;;7.40;100.00;99539.28;5038556;28;20026;-69
2023/01/11 03:09:54;;;;;;;19.83;3.70;;;;;;;7.39;100.00;99510.88;5040277;28;20029;-69
2023/01/11 03:15:31;;;;;;;17.73;3.40;;;;;;;7.33;100.00;99476.13;5039814;28;20117;-69
2023/01/11 03:18:15;;;;;;;17.25;3.28;;;;;;;7.36;100.00;99479.19;5040900;28;20048;-69
2023/01/11 03:20:48;;;;;;;19.52;3.75;;;;;;;7.47;100.00;99469.69;5040044;28;20053;-69
2023/01/11 03:23:28;;;;;;;13.52;2.90;;;;;;;7.49;100.00;99463.09;5039006;28;20041;-69
2023/01/11 03:26:24;;;;;;;21.85;3.45;;;;;;;7.53;100.00;99450.09;5038841;28;20029;-69
2023/01/11 03:29:12;;;;;;;22.67;4.00;;;;;;;7.54;100.00;99441.84;5038915;28;20025;-69
2023/01/11 03:32:20;;;;;;;25.20;4.57;;;;;;;7.32;100.00;99426.28;5038804;28;20025;-69
2023/01/11 03:34:54;;;;;;;20.70;3.53;;;;;;;7.52;100.00;99427.88;5037288;28;20037;-69
2023/01/11 03:37:29;;;;;;;21.42;3.22;;;;;;;7.54;100.00;99399.03;5038695;28;20033;-69
2023/01/11 03:40:17;;;;;;;20.58;3.03;;;;;;;7.50;100.00;99413.06;5041883;28;20037;-69
2023/01/11 03:45:34;;;;;;;13.80;2.70;;;;;;;7.69;100.00;99393.41;5041542;28;20105;-69
2023/01/11 03:48:03;;;;;;;18.02;2.50;;;;;;;7.51;100.00;99403.97;5039755;28;20033;-69
2023/01/11 03:50:30;;;;;;;14.02;1.85;;;;;;;7.51;100.00;99387.91;5038895;28;20026;-69
2023/01/11 03:52:58;;;;;;;21.58;2.67;;;;;;;7.59;100.00;99366.28;5040556;28;20079;-69
2023/01/11 03:55:28;;;;;;;19.70;3.03;;;;;;;7.64;100.00;99379.81;5040160;28;20077;-69
2023/01/11 03:57:54;;;;;;;19.38;2.75;;;;;;;7.56;100.00;99373.91;5040139;28;20026;-69
2023/01/11 04:00:21;;;;;;;23.25;3.42;;;;;;;7.62;100.00;99367.72;5037583;28;20467;-68
2023/01/11 04:02:47;;;;;;;8.43;1.63;;;;;;;7.60;100.00;99372.44;5037553;28;20017;-68
2023/01/11 04:05:13;;;;;;;22.17;2.90;;;;;;;7.66;100.00;99345.63;5038806;28;20117;-69
2023/01/11 04:07:38;;;;;;;25.58;3.08;;;;;;;7.61;100.00;99339.28;5035830;28;20052;-69
2023/01/11 04:10:05;;;;;;;24.17;3.13;;;;;;;7.69;100.00;99342.53;5019282;28;20399;-70
2023/01/11 04:12:30;;;;;;;22.67;2.63;;;;;;;7.77;100.00;99336.09;4983128;28;20575;-69
2023/01/11 04:14:56;;;;;;;19.63;2.85;;;;;;;7.64;100.00;99342.34;4984899;28;20046;-69
2023/01/11 04:17:21;;;;;;;23.83;2.42;;;;;;;7.76;100.00;99353.19;5018954;28;20053;-68
2023/01/11 04:19:47;;;;;;;24.52;3.67;;;;;;;7.70;100.00;99338.81;5001155;28;20172;-69
2023/01/11 04:22:12;;;;;;;22.45;2.97;;;;;;;7.74;100.00;99323.94;5018753;28;20068;-69
2023/01/11 04:24:38;;;;;;;26.55;3.17;;;;;;;7.74;100.00;99323.13;5019668;28;20036;-68
2023/01/11 04:27:03;;;;;;;24.85;4.03;;;;;;;7.60;100.00;99282.25;5007084;28;20040;-69
2023/01/11 04:29:29;;;;;;;22.52;3.50;;;;;;;7.82;100.00;99320.19;4990876;28;20030;-69
2023/01/11 04:31:54;;;;;;;26.33;3.22;;;;;;;7.77;100.00;99306.63;5001734;28;20026;-68
2023/01/11 04:34:19;;;;;;;20.90;2.70;;;;;;;7.75;100.00;99308.72;5002123;28;20461;-69
2023/01/11 04:36:45;;;;;;;29.88;3.50;;;;;;;7.79;100.00;99311.78;4985746;28;20496;-68
2023/01/11 04:39:10;;;;;;;31.65;4.20;;;;;;;7.70;100.00;99305.84;5021430;28;20068;-68
2023/01/11 04:44:21;;;;;;;;;;;;;;;7.76;100.00;99299.63;5025294;28;20487;-68
2023/01/11 04:46:46;;;;;;;27.85;3.08;;;;;;;7.87;100.00;99282.84;5037390;28;19913;-68
2023/01/11 04:49:12;;;;;;;29.55;4.32;;;;;;;7.85;100.00;99290.31;5037417;28;20105;-68
2023/01/11 04:51:37;;;;;;;22.92;2.95;;;;;;;7.80;100.00;99284.78;5038515;28;20156;-68
2023/01/11 04:54:03;;;;;;;19.45;2.42;;;;;;;7.87;100.00;99284.72;5037834;28;20041;-68
2023/01/11 04:56:28;;;;;;;28.13;2.92;;;;;;;7.88;100.00;99291.72;5037062;28;20057;-68
2023/01/11 04:58:54;;;;;;;18.38;2.58;;;;;;;7.67;100.00;99250.06;5038794;28;20124;-68
2023/01/11 05:01:20;;;;;;;27.73;3.63;;;;;;;7.64;100.00;99269.25;5004942;28;20064;-66
2023/01/11 05:03:45;;;;;;;23.85;2.40;;;;;;;7.82;100.00;99288.06;5038979;28;20034;-68
2023/01/11 05:06:12;;;;;;;17.83;2.40;;;;;;;7.71;100.00;99265.47;5020534;28;20044;-67
2023/01/11 05:08:38;;;;;;;23.38;3.47;;;;;;;7.82;100.00;99281.91;5037147;28;20117;-67
2023/01/11 05:11:06;;;;;;;23.83;3.42;;;;;;;7.87;100.00;99290.88;5028602;28;20095;-68
2023/01/11 05:13:41;;;;;;;26.02;2.88;;;;;;;7.89;100.00;99275.44;5037989;28;20087;-67
2023/01/11 05:16:17;;;;;;;23.33;2.83;;;;;;;7.94;100.00;99275.56;5038053;28;20232;-67
2023/01/11 05:18:43;;;;;;;22.65;2.53;;;;;;;7.91;100.00;99284.09;5036319;28;20063;-67
2023/01/11 05:21:10;;;;;;;22.23;3.17;;;;;;;7.90;100.00;99252.97;5037973;28;20053;-67
2023/01/11 05:23:36;;;;;;;22.70;2.45;;;;;;;7.92;100.00;99261.59;5038147;28;20021;-68
2023/01/11 05:26:07;;;;;;;27.13;3.00;;;;;;;7.92;100.00;99261.59;5037123;28;20097;-68
2023/01/11 05:28:33;;;;;;;18.20;2.42;;;;;;;7.85;100.00;99258.16;5042149;28;20032;-67
2023/01/11 05:30:59;;;;;;;18.77;2.95;;;;;;;8.02;100.00;99276.38;5040510;28;20487;-67
2023/01/11 05:33:24;;;;;;;29.10;3.03;;;;;;;8.12;100.00;99277.50;5024048;28;20044;-67
2023/01/11 05:35:55;;;;;;;18.60;2.35;;;;;;;8.11;100.00;99277.69;5042220;28;20364;-67
2023/01/11 05:38:21;;;;;;;21.30;2.33;;;;;;;8.19;100.00;99274.75;5041841;28;20025;-67
2023/01/11 05:41:02;;;;;;;21.33;1.92;;;;;;;8.11;100.00;99272.34;5041381;28;20108;-67
2023/01/11 05:43:29;;;;;;;20.38;2.55;;;;;;;8.12;100.00;99276.69;5038641;28;20059;-67
2023/01/11 05:45:55;;;;;;;21.88;2.67;;;;;;;8.24;100.00;99272.22;5040273;28;20013;-67
2023/01/11 05:48:21;;;;;;;24.50;3.08;;;;;;;8.27;100.00;99276.31;5041008;28;20122;-67
2023/01/11 05:50:54;;;;;;;20.33;2.63;;;;;;;8.26;100.00;99283.53;5038505;28;20039;-67
2023/01/11 05:53:21;;;;;;;22.98;2.55;;;;;;;8.10;100.00;99243.91;5039862;28;20049;-67
2023/01/11 05:55:56;;;;;;;30.58;3.33;;;;;;;8.29;100.00;99283.09;5039012;28;20025;-67
2023/01/11 05:58:22;;;;;;;;;;;;;;;8.37;100.00;99301.56;5038849;28;20350;-67
2023/01/11 06:00:54;;;;;;;26.48;2.92;;;;;;;8.29;100.00;99271.56;5038628;28;19913;-67
2023/01/11 06:03:20;;;;;;;22.10;3.15;;;;;;;8.49;100.00;99287.47;5024131;28;20129;-67
2023/01/11 06:05:45;;;;;;;29.17;2.92;;;;;;;8.47;100.00;99296.53;5042760;28;20036;-67
2023/01/11 06:08:11;;;;;;;29.40;3.35;;;;;;;8.49;100.00;99279.44;5040269;28;20100;-67
2023/01/11 06:10:37;;;;;;;28.73;3.10;;;;;;;8.60;100.00;99310.84;5039795;28;20048;-67
2023/01/11 06:15:47;;;;;;;30.25;3.38;;;;;;;8.74;100.00;99303.47;5041262;28;20049;-67
2023/01/11 06:18:12;;;;;;;32.20;4.07;;;;;;;8.82;100.00;99305.88;5038940;28;20038;-67
2023/01/11 06:20:38;;;;;;;28.77;3.80;;;;;;;8.77;100.00;99303.03;5038146;28;20017;-67
2023/01/11 06:23:03;;;;;;;16.83;2.58;;;;;;;8.66;100.00;99304.59;5039506;28;20108;-67
2023/01/11 06:25:29;;;;;;;23.58;2.90;;;;;;;8.71;100.00;99302.09;5038089;28;20448;-67
2023/01/11 06:27:55;;;;;;;24.75;3.50;;;;;;;8.87;100.00;99311.38;5038418;28;20108;-67
2023/01/11 06:30:24;;;;;;;24.55;3.63;;;;;;;8.92;100.00;99317.72;5039118;28;20027;-67
2023/01/11 06:32:50;;;;;;;32.33;3.50;;;;;;;8.88;100.00;99316.53;5041265;28;20100;-67
2023/01/11 06:35:16;;;;;;;29.10;3.85;;;;;;;8.91;100.00;99294.63;5041288;28;20037;-67
2023/01/11 06:37:41;;;;;;;27.00;3.45;;;;;;;9.07;100.00;99324.53;5039284;28;20032;-67
2023/01/11 06:40:07;;;;;;;37.60;4.30;;;;;;;9.19;100.00;99314.69;5039865;28;20443;-67
2023/01/11 06:42:32;;;;;;;32.10;4.28;;;;;;;9.24;100.00;99317.53;5039529;28;20084;-67
2023/01/11 06:44:58;;;;;;;32.67;4.00;;;;;;;9.23;100.00;99333.84;5040379;28;20092;-67
2023/01/11 06:47:23;;;;;;;34.47;4.32;;;;;;;9.25;100.00;99335.25;5022470;28;20026;-66
2023/01/11 06:49:49;;;;;;;32.53;4.38;;;;;;;9.39;100.00;99323.28;5038549;28;20041;-67
2023/01/11 06:52:14;;;;;;;40.47;5.50;;;;;;;9.44;100.00;99327.16;5040336;28;20079;-67
2023/01/11 06:54:39;;;;;;;43.10;5.47;;;;;;;9.44;100.00;99335.22;5039811;28;20028;-67
2023/01/11 06:57:05;;;;;;;37.20;5.13;;;;;;;9.41;100.00;99323.06;5040419;28;20416;-67
2023/01/11 06:59:30;;;;;;;40.13;4.47;;;;;;;9.55;100.00;99339.81;5039888;28;20038;-67
2023/01/11 07:01:57;;;;;;;41.67;4.75;;;;;;;9.61;100.00;99344.28;5038410;28;20029;-67
2023/01/11 07:04:23;;;;;;;37.10;3.90;;;;;;;9.66;100.00;99347.09;5037600;28;20178;-67
2023/01/11 07:06:48;;;;;;;43.88;4.65;;;;;;;9.68;100.00;99355.75;5037400;28;20617;-67
2023/01/11 07:09:13;;;;;;;39.80;4.65;;;;;;;9.77;100.00;99343.63;5038211;28;20220;-67
2023/01/11 07:11:39;;;;;;;39.30;5.18;;;;;;;9.83;100.00;99342.72;5036891;28;20033;-67
2023/01/11 07:14:05;;;;;;;33.00;4.28;;;;;;;9.84;100.00;99352.41;5020481;28;20036;-67
2023/01/11 07:16:30;;;;;;;43.80;4.82;;;;;;;9.81;100.00;99354.72;5037821;28;20026;-67
2023/01/11 07:18:55;;;;;;;34.17;4.00;;;;;;;9.81;100.00;99355.56;5036601;28;20057;-67
2023/01/11 07:21:21;;;;;;;37.80;4.65;;;;;;;9.77;100.00;99358.94;5037872;28;20091;-67
2023/01/11 07:23:47;;;;;;;25.48;3.10;;;;;;;9.76;100.00;99360.78;5038042;28;20323;-67
2023/01/11 07:26:15;;;;;;;37.45;4.13;;;;;;;9.87;100.00;99368.06;5037639;28;20053;-67
2023/01/11 07:28:41;;;;;;;40.20;3.67;;;;;;;9.89;100.00;99357.88;5031941;28;20091;-67
2023/01/11 07:31:07;;;;;;;28.52;3.80;;;;;;;10.02;100.00;99364.13;5037530;28;20029;-67
2023/01/11 07:33:32;;;;;;;46.17;5.25;;;;;;;9.98;100.00;99371.00;5035713;28;20545;-67
2023/01/11 07:35:59;;;;;;;34.90;3.83;;;;;;;10.05;100.00;99371.72;5035131;28;20120;-67
2023/01/11 07:38:28;;;;;;;33.63;4.45;;;;;;;9.99;100.00;99372.63;5036494;28;20045;-67
2023/01/11 07:40:53;;;;;;;39.47;4.22;;;;;;;10.01;100.00;99381.31;5038078;28;20052;-67
2023/01/11 07:43:21;;;;;;;35.17;4.10;;;;;;;9.96;100.00;99391.91;5037857;28;20033;-67
2023/01/11 07:45:49;;;;;;;36.05;4.00;;;;;;;10.03;100.00;99389.94;5038502;28;20041;-67
2023/01/11 07:48:23;;;;;;;34.15;4.53;;;;;;;10.12;100.00;99385.88;5036854;28;20036;-67
2023/01/11 07:50:49;;;;;;;39.83;4.53;;;;;;;10.10;100.00;99404.13;5037484;28;20047;-67
2023/01/11 07:53:14;;;;;;;34.20;3.97;;;;;;;10.11;100.00;99392.31;5037597;28;20031;-67
2023/01/11 07:55:40;;;;;;;33.72;3.97;;;;;;;10.20;100.00;99393.63;5036785;28;20029;-67
2023/01/11 07:58:07;;;;;;;36.00;4.57;;;;;;;10.04;100.00;99386.22;5037164;28;20029;-67
2023/01/11 08:00:33;;;;;;;36.53;4.10;;;;;;;10.18;100.00;99402.94;5036920;28;20395;-67
2023/01/11 08:02:59;;;;;;;34.50;4.47;;;;;;;10.11;100.00;99416.50;5036952;28;20040;-67
2023/01/11 08:05:24;;;;;;;35.83;3.88;;;;;;;10.15;100.00;99409.59;5035905;28;20055;-67
2023/01/11 08:07:50;;;;;;;47.25;5.40;;;;;;;10.16;100.00;99405.03;5035577;28;20096;-67
2023/01/11 08:10:15;;;;;;;39.30;4.22;;;;;;;10.18;100.00;99425.28;5036098;28;20029;-67
2023/01/11 08:15:31;;;;;;;42.75;4.00;;;;;;;10.19;100.00;99434.97;5037158;28;20041;-67
2023/01/11 08:17:57;;;;;;;40.92;4.43;;;;;;;10.14;100.00;99425.97;5037336;28;20021;-67
2023/01/11 08:20:22;;;;;;;42.33;5.13;;;;;;;10.26;100.00;99449.16;5036756;28;20056;-67
2023/01/11 08:22:48;;;;;;;37.10;4.80;;;;;;;10.18;100.00;99433.34;5036952;28;20030;-67
2023/01/11 08:25:13;;;;;;;34.42;4.43;;;;;;;10.07;100.00;99426.06;5037149;28;20040;-67
2023/01/11 08:27:39;;;;;;;39.38;4.15;;;;;;;10.11;100.00;99432.63;5035768;28;20062;-67
2023/01/11 08:30:05;;;;;;;40.92;4.43;;;;;;;10.24;100.00;99445.88;5015351;28;20029;-67
2023/01/11 08:32:30;;;;;;;44.83;4.60;;;;;;;10.32;100.00;99456.31;5033637;28;20033;-67
2023/01/11 08:34:56;;;;;;;33.85;4.13;;;;;;;10.16;100.00;99442.66;5034683;28;20080;-67
2023/01/11 08:37:21;;;;;;;42.25;4.93;;;;;;;10.28;100.00;99463.19;5035380;28;20125;-67
2023/01/11 08:39:47;;;;;;;44.33;4.93;;;;;;;10.19;100.00;99461.03;5036512;28;20087;-67
2023/01/11 08:42:14;;;;;;;48.25;5.18;;;;;;;10.37;100.00;99470.94;5036206;28;20029;-67
2023/01/11 08:44:39;;;;;;;48.50;4.90;;;;;;;10.28;100.00;99473.13;5034140;28;20090;-67
2023/01/11 08:47:05;;;;;;;40.40;5.30;;;;;;;10.29;100.00;99482.84;5034232;28;20033;-67
2023/01/11 08:49:30;;;;;;;55.67;5.47;;;;;;;10.38;100.00;99483.34;5035827;28;20455;-67
2023/01/11 08:51:56;;;;;;;45.67;5.00;;;;;;;10.35;100.00;99485.41;5035064;28;20068;-67
2023/01/11 08:54:22;;;;;;;41.90;5.82;;;;;;;10.39;100.00;99491.16;5036883;28;20556;-67
2023/01/11 08:56:47;;;;;;;44.63;6.13;;;;;;;10.39;100.00;99491.16;5018999;28;20052;-67
2023/01/11 08:59:12;;;;;;;49.20;5.53;;;;;;;10.40;100.00;99490.13;5034713;28;20029;-67
2023/01/11 09:01:38;;;;;;;51.78;5.28;;;;;;;10.39;100.00;99487.66;5036233;28;20029;-67
2023/01/11 09:04:04;;;;;;;55.42;5.50;;;;;;;10.34;100.00;99469.53;5023316;28;20026;-67
2023/01/11 09:06:30;;;;;;;52.42;5.53;;;;;;;10.35;100.00;99479.22;5040593;28;20022;-67
2023/01/11 09:08:55;;;;;;;46.58;5.18;;;;;;;10.51;100.00;99499.25;5039248;28;20432;-67
2023/01/11 09:14:05;;;;;;;42.10;5.80;;;;;;;10.28;100.00;99498.16;5040626;28;20032;-67
2023/01/11 09:16:31;;;;;;;51.65;6.88;;;;;;;10.41;100.00;99515.16;5040525;28;20032;-67
2023/01/11 09:18:56;;;;;;;48.70;5.88;;;;;;;10.22;100.00;99515.16;5022299;28;20049;-67
2023/01/11 09:21:22;;;;;;;50.45;6.00;;;;;;;10.32;100.00;99520.00;5039166;28;20056;-67
2023/01/11 09:23:47;;;;;;;56.13;6.32;;;;;;;10.44;100.00;99517.38;5040553;28;20049;-67
2023/01/11 09:26:14;;;;;;;52.67;5.50;;;;;;;10.40;100.00;99524.25;5041178;28;20037;-67
2023/01/11 09:28:40;;;;;;;64.20;6.82;;;;;;;10.41;100.00;99523.22;5039802;28;20033;-67
2023/01/11 09:31:06;;;;;;;55.70;6.18;;;;;;;10.42;100.00;99528.34;5038951;28;20022;-67
2023/01/11 09:33:33;;;;;;;53.83;6.55;;;;;;;10.39;100.00;99534.19;5039567;28;20067;-67
2023/01/11 09:36:01;;;;;;;60.17;7.13;;;;;;;10.46;100.00;99534.09;5018769;28;20033;-67
2023/01/11 09:38:29;;;;;;;59.85;7.30;;;;;;;10.56;100.00;99543.25;5038077;28;20416;-67
2023/01/11 09:41:03;;;;;;;59.53;7.30;;;;;;;10.58;100.00;99535.75;5037203;28;20462;-68
2023/01/11 09:43:29;;;;;;;61.65;6.53;;;;;;;10.56;100.00;99547.78;5037203;28;20036;-68
2023/01/11 09:46:03;;;;;;;58.53;6.60;;;;;;;10.68;100.00;99540.56;5038990;28;20052;-68
2023/01/11 09:48:47;;;;;;;65.88;7.80;;;;;;;10.57;100.00;99538.69;5039009;28;20456;-67
2023/01/11 09:51:17;;;;;;;58.03;7.50;;;;;;;10.75;100.00;99549.38;5037813;28;20064;-68
2023/01/11 09:53:49;;;;;;;52.03;6.40;;;;;;;10.67;100.00;99540.81;5021671;28;20072;-67
2023/01/11 09:56:23;;;;;;;51.88;7.03;;;;;;;10.79;100.00;99555.94;5036988;28;20501;-68
2023/01/11 09:59:18;;;;;;;57.65;7.35;;;;;;;10.79;100.00;99566.72;5039190;28;20051;-68
2023/01/11 10:02:06;;;;;;;65.23;6.83;;;;;;;10.73;100.00;99566.81;5037516;28;20025;-67
2023/01/11 10:04:59;;;;;;;52.40;6.80;;;;;;;10.82;100.00;99565.41;5039124;28;20828;-68
2023/01/11 10:07:48;;;;;;;49.67;6.75;;;;;;;10.93;100.00;99571.88;5032883;28;20045;-67
2023/01/11 10:10:35;;;;;;;50.95;6.63;;;;;;;10.92;100.00;99579.09;5037706;28;20037;-68
2023/01/11 10:13:25;;;;;;;60.00;7.45;;;;;;;10.89;100.00;99578.75;5038747;28;20057;-68
2023/01/11 10:16:06;;;;;;;42.10;6.47;;;;;;;10.97;100.00;99584.63;5039491;28;20031;-68
2023/01/11 10:18:53;;;;;;;57.38;7.07;;;;;;;11.00;100.00;99578.78;5039208;28;20423;-68
2023/01/11 10:21:30;;;;;;;47.55;6.78;;;;;;;10.87;100.00;99557.47;5037781;28;20087;-68
2023/01/11 10:24:23;;;;;;;51.15;6.85;;;;;;;10.96;100.00;99590.22;5039930;28;20037;-68
2023/01/11 10:26:52;;;;;;;50.78;6.82;;;;;;;11.04;100.00;99588.03;5038183;28;20026;-68
2023/01/11 10:35:28;;;;;;;51.55;6.65;;;;;;;11.00;100.00;99602.19;5039306;28;20036;-68
2023/01/11 10:38:22;;;;;;;55.55;7.82;;;;;;;10.99;100.00;99600.53;5039321;28;20021;-68
2023/01/11 10:41:14;;;;;;;60.15;7.50;;;;;;;11.00;100.00;99588.75;5039286;28;20032;-68
2023/01/11 10:43:45;;;;;;;59.35;7.82;;;;;;;11.09;100.00;99597.28;5039176;28;20574;-68
2023/01/11 10:46:23;;;;;;;47.53;7.45;;;;;;;10.94;100.00;99584.28;5039351;28;20052;-68
2023/01/11 10:49:08;;;;;;;55.05;8.18;;;;;;;11.16;100.00;99600.69;5040243;28;20025;-68
2023/01/11 10:51:43;;;;;;;47.72;7.20;;;;;;;11.25;100.00;99613.56;5037677;28;20427;-68
2023/01/11 10:54:16;;;;;;;52.38;7.43;;;;;;;11.17;100.00;99605.84;5038074;28;20103;-68
2023/01/11 10:57:12;;;;;;;52.90;6.63;;;;;;;11.20;100.00;99612.66;5037879;28;20079;-68
2023/01/11 10:59:41;;;;;;;61.95;7.47;;;;;;;11.10;100.00;99617.78;5037197;28;20108;-68
2023/01/11 11:02:39;;;;;;;53.05;8.00;;;;;;;11.10;100.00;99615.91;5037216;28;20021;-68
2023/01/11 11:05:29;;;;;;;61.50;7.07;;;;;;;11.11;100.00;99617.53;5036157;28;20037;-68
2023/01/11 11:07:57;;;;;;;54.65;6.75;;;;;;;11.02;100.00;99629.69;5039625;28;20030;-68
2023/01/11 11:10:25;;;;;;;63.28;7.78;;;;;;;10.98;100.00;99625.81;5039159;28;20025;-68
2023/01/11 11:13:03;;;;;;;53.22;6.63;;;;;;;10.92;100.00;99619.47;5037766;28;20108;-68
2023/01/11 11:15:59;;;;;;;57.25;7.15;;;;;;;10.94;100.00;99627.34;5038441;28;20545;-68
2023/01/11 11:18:24;;;;;;;52.83;6.63;;;;;;;10.93;100.00;99637.28;5038112;28;20132;-68
2023/01/11 11:20:50;;;;;;;50.42;6.50;;;;;;;10.87;100.00;99627.44;5039031;28;20037;-68
2023/01/11 11:23:20;;;;;;;54.70;7.28;;;;;;;10.77;100.00;99632.56;5039130;28;20044;-68
2023/01/11 11:25:50;;;;;;;57.60;6.82;;;;;;;10.85;100.00;99637.59;5036562;28;20481;-68
2023/01/11 11:28:21;;;;;;;50.58;6.70;;;;;;;10.89;100.00;99640.66;5038485;28;20021;-68
2023/01/11 11:30:48;;;;;;;53.83;6.70;;;;;;;10.85;100.00;99631.41;5037258;28;20021;-68
2023/01/11 11:33:22;;;;;;;51.40;7.35;;;;;;;10.82;100.00;99643.44;5038723;28;20116;-68
2023/01/11 11:35:57;;;;;;;52.03;7.10;;;;;;;10.83;100.00;99639.72;5036951;28;20112;-68
2023/01/11 11:38:28;;;;;;;48.30;6.20;;;;;;;10.84;100.00;99644.03;5037644;28;20254;-68
2023/01/11 11:41:04;;;;;;;61.47;7.95;;;;;;;10.79;100.00;99657.34;5037079;28;20079;-68
2023/01/11 11:43:32;;;;;;;53.75;7.28;;;;;;;10.86;100.00;99647.34;5037556;28;20026;-68
2023/01/11 11:46:03;;;;;;;52.38;7.15;;;;;;;10.92;100.00;99648.28;5037643;28;20060;-68
2023/01/11 11:48:33;;;;;;;56.85;6.82;;;;;;;10.86;100.00;99647.34;5037625;28;20032;-68
2023/01/11 11:51:03;;;;;;;57.55;7.60;;;;;;;10.77;100.00;99636.06;5036387;28;20025;-68
2023/01/11 11:53:36;;;;;;;51.03;6.57;;;;;;;10.80;100.00;99632.91;5037041;28;20391;-68
2023/01/11 11:56:20;;;;;;;49.35;6.53;;;;;;;10.92;100.00;99654.47;5037769;28;20107;-68
2023/01/11 11:58:46;;;;;;;52.15;6.60;;;;;;;10.96;100.00;99663.75;5038172;28;20044;-68
2023/01/11 12:01:45;;;;;;;52.50;6.88;;;;;;;10.96;100.00;99658.38;5038047;28;20224;-68
2023/01/11 12:04:14;;;;;;;56.55;7.18;;;;;;;10.93;100.00;99658.00;5037848;28;20026;-68
2023/01/11 12:06:41;;;;;;;50.00;6.88;;;;;;;10.98;100.00;99661.63;5037779;28;20029;-67
2023/01/11 12:09:33;;;;;;;58.50;7.32;;;;;;;11.02;100.00;99662.00;5036035;28;20025;-68
2023/01/11 12:11:59;;;;;;;56.25;6.80;;;;;;;11.01;100.00;99661.16;5032920;28;20124;-68